Hersey, Wisconsin
Current Conditions -  °F | °C
As of 12:15 PM on Thursday 27 Nov 2014 (Local Time) from KLUM Reporting Station
Clear Clear  
Wind Chill: -2°   Ceiling: Unl
Heat Index:   Visibility: 10mi
Dew Point: -4°   Wind: 6mph
Humidity: 57%   Direction: 270°W
Pressure: 30.45"   Gusts: NA
Location:  44.9123°N, 92.1905°W
Report Text: KLUM 271815Z AUTO 27005KT 10SM CLR M13/M20 A3045 RMK AO2 T11321202
Loading
Personal Weather Stations






























Interactive Weather Map New forecast layout! Learn more

10-Day Weather Forecast

Advertisements
Track Severe Weather on mobile